Time;durP1;ratioP1;P1;durP2;ratioP2;P2;SDS_P1;SDS_P2;PMS_P1;PMS_P2;Temp;Humidity;BMP_temperature;BMP_pressure;BME280_temperature;BME280_humidity;BME280_pressure;Samples;Min_cycle;Max_cycle;Signal;HPM_P1;HPM_P2
2023/06/30 00:00:15;;;;;;;1.60;0.50;;;22.70;1.00;;;;;;4972805;28;20383;-55
2023/06/30 00:02:46;;;;;;;2.97;0.70;;;22.70;1.00;;;;;;4955348;28;20043;-56
2023/06/30 00:05:13;;;;;;;2.25;0.60;;;22.70;1.00;;;;;;4973229;28;20115;-57
2023/06/30 00:07:42;;;;;;;2.55;0.68;;;22.70;1.00;;;;;;4972726;28;20035;-55
2023/06/30 00:10:10;;;;;;;3.15;1.25;;;22.70;1.00;;;;;;4972667;28;20066;-56
2023/06/30 00:12:37;;;;;;;3.50;1.42;;;22.70;1.00;;;;;;4972598;28;20048;-50
2023/06/30 00:18:00;;;;;;;1.50;0.98;;;22.70;1.00;;;;;;5167906;23;20051;-52
2023/06/30 00:20:26;;;;;;;3.92;0.47;;;22.70;1.00;;;;;;4948988;28;20094;-50
2023/06/30 00:22:53;;;;;;;5.20;1.23;;;22.70;1.00;;;;;;4933712;29;20510;-52
2023/06/30 00:25:20;;;;;;;2.85;0.77;;;22.70;1.00;;;;;;4937597;29;20377;-52
2023/06/30 00:27:47;;;;;;;2.17;0.90;;;22.70;1.00;;;;;;4938301;29;20047;-51
2023/06/30 00:30:14;;;;;;;2.20;0.60;;;22.70;1.00;;;;;;4920713;29;20130;-52
2023/06/30 00:32:41;;;;;;;1.90;0.55;;;22.70;1.00;;;;;;4920608;29;20052;-56
2023/06/30 00:35:09;;;;;;;1.25;0.40;;;22.70;1.00;;;;;;4937866;29;20043;-57
2023/06/30 00:37:36;;;;;;;2.90;0.73;;;22.60;1.00;;;;;;4920596;29;20476;-58
2023/06/30 00:40:04;;;;;;;1.48;0.47;;;22.60;1.00;;;;;;4920429;29;20082;-58
2023/06/30 00:42:30;;;;;;;2.47;1.35;;;22.60;1.00;;;;;;4937389;29;20496;-57
2023/06/30 00:44:59;;;;;;;4.13;0.60;;;22.60;1.00;;;;;;4920427;29;20047;-57
2023/06/30 00:47:26;;;;;;;1.52;0.65;;;22.60;1.00;;;;;;4937358;29;20123;-57
2023/06/30 00:49:53;;;;;;;2.95;0.50;;;22.60;1.00;;;;;;5187389;23;20047;-54
2023/06/30 00:52:20;;;;;;;3.58;0.47;;;22.60;1.00;;;;;;4929332;29;20385;-56
2023/06/30 00:54:47;;;;;;;1.48;0.40;;;22.60;1.00;;;;;;4917492;29;20126;-57
2023/06/30 00:57:14;;;;;;;3.05;0.52;;;22.60;1.00;;;;;;4920341;29;20339;-57
2023/06/30 00:59:41;;;;;;;5.78;0.82;;;22.60;1.00;;;;;;4919984;29;20044;-52
2023/06/30 01:02:22;;;;;;;3.13;0.63;;;22.60;1.00;;;;;;4919955;29;20052;-57
2023/06/30 01:05:14;;;;;;;1.10;0.40;;;22.60;1.00;;;;;;4919927;29;20155;-53
2023/06/30 01:08:12;;;;;;;2.50;1.15;;;22.60;1.00;;;;;;4936958;29;20472;-56
2023/06/30 01:10:42;;;;;;;2.50;0.52;;;22.60;1.00;;;;;;4915449;29;21536;-50
2023/06/30 01:13:11;;;;;;;2.97;0.35;;;22.60;1.00;;;;;;4937078;29;20467;-51
2023/06/30 01:15:40;;;;;;;1.90;0.50;;;22.50;1.00;;;;;;4937179;29;20086;-54
2023/06/30 01:18:10;;;;;;;3.10;0.93;;;22.50;1.00;;;;;;4919784;29;20051;-50
2023/06/30 01:21:12;;;;;;;1.85;0.68;;;22.50;1.00;;;;;;4945984;23;20050;31
2023/06/30 01:23:52;;;;;;;3.13;0.55;;;22.50;1.00;;;;;;4882678;29;20723;-59
2023/06/30 01:26:20;;;;;;;1.50;0.50;;;22.50;1.00;;;;;;4897044;29;20051;-60
2023/06/30 01:28:50;;;;;;;1.65;0.32;;;22.50;1.00;;;;;;4902963;29;20040;-60
2023/06/30 01:31:19;;;;;;;4.20;0.60;;;22.50;1.00;;;;;;4925925;29;20499;-58
2023/06/30 01:33:46;;;;;;;3.00;0.55;;;22.50;1.00;;;;;;4919383;29;20112;-58
2023/06/30 01:36:13;;;;;;;2.58;0.80;;;22.50;1.00;;;;;;4927230;29;20475;-57
2023/06/30 01:38:40;;;;;;;2.00;0.50;;;22.50;1.00;;;;;;4919155;29;20535;-60
2023/06/30 01:41:08;;;;;;;4.18;0.95;;;22.50;1.00;;;;;;4936365;29;20571;-60
2023/06/30 01:43:36;;;;;;;1.88;0.45;;;22.40;1.00;;;;;;4911734;29;20048;-59
2023/06/30 01:46:04;;;;;;;1.08;0.43;;;22.40;1.00;;;;;;4919474;29;20444;-59
2023/06/30 01:48:33;;;;;;;1.00;0.43;;;22.40;1.00;;;;;;4936403;29;20036;-58
2023/06/30 01:51:00;;;;;;;2.40;0.35;;;22.40;1.00;;;;;;4919080;29;20058;-60
2023/06/30 01:53:27;;;;;;;2.95;0.55;;;22.40;1.00;;;;;;4973164;23;20056;-60
2023/06/30 01:55:56;;;;;;;2.03;0.95;;;22.40;1.00;;;;;;4935473;29;20051;-59
2023/06/30 01:58:24;;;;;;;1.80;0.47;;;22.40;1.00;;;;;;4949379;29;20536;-59
2023/06/30 02:00:50;;;;;;;2.17;0.57;;;22.40;1.00;;;;;;4928396;29;20051;-59
2023/06/30 02:03:17;;;;;;;2.60;0.47;;;22.40;1.00;;;;;;4918871;29;20050;-60
2023/06/30 02:05:48;;;;;;;0.85;0.40;;;22.40;1.00;;;;;;4918906;29;20047;-60
2023/06/30 02:08:15;;;;;;;2.72;0.43;;;22.40;1.00;;;;;;4918975;29;20040;-58
2023/06/30 02:10:42;;;;;;;2.10;0.50;;;22.40;1.00;;;;;;4918729;29;20138;-59
2023/06/30 02:13:09;;;;;;;1.10;0.50;;;22.40;1.00;;;;;;4918819;29;20071;-60
2023/06/30 02:15:36;;;;;;;1.65;0.30;;;22.40;1.00;;;;;;4936288;29;20454;-60
2023/06/30 02:18:03;;;;;;;2.08;0.55;;;22.40;1.00;;;;;;4935842;29;20074;-61
2023/06/30 02:20:32;;;;;;;1.17;0.40;;;22.30;1.00;;;;;;4918501;29;20047;-59
2023/06/30 02:22:59;;;;;;;1.55;0.52;;;22.30;1.00;;;;;;5065414;23;20054;-60
2023/06/30 02:25:25;;;;;;;2.03;0.63;;;22.30;1.00;;;;;;4932212;29;20055;-61
2023/06/30 02:27:53;;;;;;;1.38;0.45;;;22.30;1.00;;;;;;4950876;29;20043;-60
2023/06/30 02:30:20;;;;;;;1.50;0.52;;;22.30;1.00;;;;;;4949179;29;20145;-61
2023/06/30 02:32:47;;;;;;;1.77;0.35;;;22.30;1.00;;;;;;4935412;29;20471;-61
2023/06/30 02:35:14;;;;;;;1.25;0.30;;;22.30;1.00;;;;;;4935392;29;20036;-60
2023/06/30 02:37:41;;;;;;;1.20;0.32;;;22.30;1.00;;;;;;4918313;29;20071;-61
2023/06/30 02:40:09;;;;;;;1.05;0.40;;;22.30;1.00;;;;;;4918357;29;20134;-60
2023/06/30 02:42:36;;;;;;;2.30;0.68;;;22.30;1.00;;;;;;4917702;29;20044;-61
2023/06/30 02:45:04;;;;;;;1.33;0.45;;;22.30;1.00;;;;;;4917806;29;20132;-61
2023/06/30 02:47:31;;;;;;;1.80;0.40;;;22.30;1.00;;;;;;4918202;29;20099;-60
2023/06/30 02:49:59;;;;;;;2.03;0.38;;;22.30;1.00;;;;;;4918362;29;20134;-60
2023/06/30 02:55:29;;;;;;;0.82;0.20;;;22.30;1.00;;;;;;4974036;23;20065;-59
2023/06/30 02:57:56;;;;;;;2.15;0.85;;;22.30;1.00;;;;;;4843249;29;20072;-58
2023/06/30 03:00:24;;;;;;;2.60;0.73;;;22.30;1.00;;;;;;4843362;29;20436;-60
2023/06/30 03:02:52;;;;;;;2.30;0.60;;;22.30;1.00;;;;;;4854065;29;20045;-60
2023/06/30 03:05:20;;;;;;;2.33;0.52;;;22.30;1.00;;;;;;4861655;29;20049;-61
2023/06/30 03:07:47;;;;;;;1.60;0.50;;;22.20;1.00;;;;;;4894974;23;20048;-51
2023/06/30 03:10:17;;;;;;;1.73;0.50;;;22.20;1.00;;;;;;4895816;29;20051;-51
2023/06/30 03:12:44;;;;;;;3.47;0.40;;;22.20;1.00;;;;;;4895691;29;20568;-51
2023/06/30 03:15:11;;;;;;;1.77;0.95;;;22.20;1.00;;;;;;4895517;29;20037;-53
2023/06/30 03:17:38;;;;;;;1.48;0.80;;;22.20;1.00;;;;;;4895144;29;20052;-54
2023/06/30 03:20:11;;;;;;;1.00;0.43;;;22.20;1.00;;;;;;4893607;29;20079;-51
2023/06/30 03:22:39;;;;;;;4.25;1.13;;;22.20;1.00;;;;;;4890441;29;20112;-52
2023/06/30 03:28:17;;;;;;;1.27;0.43;;;22.20;1.00;;;;;;4865415;29;20101;-53
2023/06/30 03:30:44;;;;;;;5.03;0.65;;;22.20;1.00;;;;;;4876526;29;20040;-55
2023/06/30 03:33:11;;;;;;;1.38;0.40;;;22.20;1.00;;;;;;4875410;29;20041;-51
2023/06/30 03:35:38;;;;;;;1.83;0.50;;;22.20;1.00;;;;;;4876775;29;20059;-53
2023/06/30 03:38:05;;;;;;;1.25;0.45;;;22.20;1.00;;;;;;4878022;29;20076;-54
2023/06/30 03:40:32;;;;;;;1.92;0.73;;;22.20;1.00;;;;;;4877927;29;20385;-53
2023/06/30 03:42:58;;;;;;;2.42;0.65;;;22.20;1.00;;;;;;4876584;29;20045;-55
2023/06/30 03:45:25;;;;;;;3.70;0.30;;;22.10;1.00;;;;;;4876837;29;20041;-56
2023/06/30 03:47:52;;;;;;;2.20;0.60;;;22.10;1.00;;;;;;4877758;29;20069;-54
2023/06/30 03:50:19;;;;;;;1.75;0.60;;;22.10;1.00;;;;;;4877775;29;20049;-56
2023/06/30 03:52:46;;;;;;;2.35;0.60;;;22.10;1.00;;;;;;4877800;29;20069;-54
2023/06/30 03:55:13;;;;;;;2.45;0.50;;;22.10;1.00;;;;;;4878263;29;20055;-56
2023/06/30 03:57:39;;;;;;;1.40;0.68;;;22.10;1.00;;;;;;4968040;23;20060;-55
2023/06/30 04:00:11;;;;;;;1.17;0.47;;;22.10;1.00;;;;;;4843170;29;20057;-52
2023/06/30 04:02:39;;;;;;;1.90;0.40;;;22.10;1.00;;;;;;4844520;29;20054;-50
2023/06/30 04:05:07;;;;;;;1.58;0.80;;;22.10;1.00;;;;;;4849038;29;20046;-52
2023/06/30 04:07:35;;;;;;;1.58;0.68;;;22.10;1.00;;;;;;4845177;29;20473;-51
2023/06/30 04:10:02;;;;;;;1.63;0.40;;;22.10;1.00;;;;;;4862891;29;20041;-55
2023/06/30 04:12:29;;;;;;;2.13;0.55;;;22.10;1.00;;;;;;4863007;29;20073;-54
2023/06/30 04:14:56;;;;;;;1.25;0.50;;;22.10;1.00;;;;;;4862848;29;20042;-51
2023/06/30 04:17:23;;;;;;;1.02;0.68;;;22.10;1.00;;;;;;4862648;29;20103;-50
2023/06/30 04:19:50;;;;;;;3.92;0.68;;;22.10;1.00;;;;;;4862701;29;20477;-52
2023/06/30 04:22:16;;;;;;;1.70;0.57;;;22.10;1.00;;;;;;4862498;29;20116;-52
2023/06/30 04:24:43;;;;;;;3.55;0.65;;;22.10;1.00;;;;;;4862381;29;20490;-51
2023/06/30 04:27:11;;;;;;;2.63;0.60;;;22.10;1.00;;;;;;4929727;23;20048;-53
2023/06/30 04:29:38;;;;;;;3.53;0.60;;;22.10;1.00;;;;;;4903156;29;20053;-52
2023/06/30 04:32:05;;;;;;;1.70;0.52;;;22.10;1.00;;;;;;4904122;29;20046;-52
2023/06/30 04:34:34;;;;;;;2.92;1.23;;;22.10;1.00;;;;;;4880586;29;20045;-51
2023/06/30 04:37:01;;;;;;;2.92;0.55;;;22.00;1.00;;;;;;4899371;29;20044;-54
2023/06/30 04:39:28;;;;;;;3.40;1.50;;;22.00;1.00;;;;;;4899457;29;20052;-51
2023/06/30 04:41:55;;;;;;;7.55;1.00;;;22.00;1.00;;;;;;4897385;29;20036;-51
2023/06/30 04:44:22;;;;;;;2.20;0.73;;;22.00;1.00;;;;;;4899678;29;20485;-49
2023/06/30 04:46:49;;;;;;;5.68;1.05;;;22.00;1.00;;;;;;4900005;29;20043;-50
2023/06/30 04:49:17;;;;;;;4.20;0.73;;;22.00;1.00;;;;;;4899844;29;20104;-50
2023/06/30 04:51:43;;;;;;;4.07;0.57;;;22.00;1.00;;;;;;4893566;29;20593;-51
2023/06/30 04:54:10;;;;;;;5.07;0.95;;;22.00;1.00;;;;;;4886823;29;20101;-50
2023/06/30 04:56:37;;;;;;;5.32;0.90;;;22.00;1.00;;;;;;4884618;29;20056;-54
2023/06/30 04:59:04;;;;;;;3.08;0.98;;;22.00;1.00;;;;;;5354869;23;20474;-49
2023/06/30 05:01:32;;;;;;;4.07;0.88;;;22.00;1.00;;;;;;4864261;29;20068;-52
2023/06/30 05:03:59;;;;;;;2.85;0.82;;;21.90;1.00;;;;;;4861691;29;20343;-56
2023/06/30 05:06:27;;;;;;;4.35;1.00;;;21.90;1.00;;;;;;4860310;29;20044;-53
2023/06/30 05:08:53;;;;;;;7.00;0.73;;;21.90;1.00;;;;;;4866959;29;20052;-51
2023/06/30 05:11:20;;;;;;;5.50;1.17;;;21.90;1.00;;;;;;4863636;29;20456;-51
2023/06/30 05:13:47;;;;;;;5.03;1.60;;;21.90;1.00;;;;;;4856349;29;20052;-51
2023/06/30 05:16:14;;;;;;;2.90;1.00;;;21.90;1.00;;;;;;4861032;29;20049;-51
2023/06/30 05:18:41;;;;;;;3.67;0.40;;;21.90;1.00;;;;;;4844962;29;20188;-53
2023/06/30 05:21:08;;;;;;;3.17;0.60;;;21.90;1.00;;;;;;4861776;29;20055;-53
2023/06/30 05:23:35;;;;;;;2.38;1.05;;;21.80;1.00;;;;;;4865007;29;20048;-52
2023/06/30 05:26:02;;;;;;;1.98;0.90;;;21.80;1.00;;;;;;4863401;29;20037;-53
2023/06/30 05:28:29;;;;;;;2.63;1.13;;;21.80;1.00;;;;;;4855300;29;20501;-50
2023/06/30 05:30:56;;;;;;;1.88;0.80;;;21.80;1.00;;;;;;5038274;23;20076;-52
2023/06/30 05:33:22;;;;;;;2.03;0.75;;;21.80;1.00;;;;;;4871448;29;20461;-50
2023/06/30 05:35:49;;;;;;;2.70;0.85;;;21.80;1.00;;;;;;4878833;29;20585;-52
2023/06/30 05:38:16;;;;;;;2.85;0.70;;;21.70;1.00;;;;;;4872309;29;20486;-51
2023/06/30 05:40:43;;;;;;;1.98;0.88;;;21.80;1.00;;;;;;4878787;29;20044;-52
2023/06/30 05:43:10;;;;;;;3.03;0.90;;;21.80;1.00;;;;;;4874541;29;20132;-52
2023/06/30 05:45:38;;;;;;;2.63;0.88;;;21.80;1.00;;;;;;4882001;29;20045;-50
2023/06/30 05:48:05;;;;;;;3.47;0.73;;;21.80;1.00;;;;;;4879690;29;20124;-49
2023/06/30 05:50:32;;;;;;;2.42;1.20;;;21.80;1.00;;;;;;4879361;29;20478;-50
2023/06/30 05:52:59;;;;;;;2.92;0.65;;;21.80;1.00;;;;;;4898486;29;20040;-50
2023/06/30 05:55:26;;;;;;;2.15;0.70;;;21.80;1.00;;;;;;4892299;29;20486;-54
2023/06/30 05:57:53;;;;;;;2.63;0.50;;;21.80;1.00;;;;;;4879425;29;20049;-50
2023/06/30 06:03:15;;;;;;;2.92;1.25;;;21.80;1.00;;;;;;4858542;29;20166;-54
2023/06/30 06:05:42;;;;;;;3.38;0.90;;;21.80;1.00;;;;;;4850859;29;20033;-50
2023/06/30 06:08:09;;;;;;;9.38;1.02;;;21.80;1.00;;;;;;4856571;29;20379;-54
2023/06/30 06:10:36;;;;;;;9.77;1.20;;;21.80;1.00;;;;;;4858798;29;20478;-54
2023/06/30 06:13:03;;;;;;;5.18;0.75;;;21.80;1.00;;;;;;4856615;29;20073;-50
2023/06/30 06:15:30;;;;;;;3.50;0.68;;;21.80;1.00;;;;;;4857045;29;20041;-52
2023/06/30 06:17:57;;;;;;;8.20;2.10;;;21.80;1.00;;;;;;4876554;29;20544;-52
2023/06/30 06:20:23;;;;;;;8.35;1.50;;;21.90;1.00;;;;;;4879019;29;20053;-51
2023/06/30 06:22:50;;;;;;;8.32;0.98;;;21.80;1.00;;;;;;4879248;29;20124;-52
2023/06/30 06:25:17;;;;;;;6.72;0.82;;;21.90;1.00;;;;;;4879235;29;20461;-56
2023/06/30 06:27:44;;;;;;;5.10;0.95;;;21.90;1.00;;;;;;4879354;29;20451;-56
2023/06/30 06:30:11;;;;;;;7.10;2.15;;;21.90;1.00;;;;;;4871810;29;20450;-56
2023/06/30 06:32:38;;;;;;;6.18;0.75;;;21.90;1.00;;;;;;4878940;29;20113;-56
2023/06/30 06:35:05;;;;;;;6.72;1.27;;;21.90;1.00;;;;;;5054459;23;20136;-55
2023/06/30 06:37:32;;;;;;;9.52;0.88;;;21.90;1.00;;;;;;4897634;29;20053;-55
2023/06/30 06:39:59;;;;;;;4.43;1.00;;;21.90;1.00;;;;;;4897494;29;20453;-56
2023/06/30 06:42:26;;;;;;;4.05;1.23;;;21.90;1.00;;;;;;4897300;29;20069;-56
2023/06/30 06:44:53;;;;;;;4.22;0.70;;;21.90;1.00;;;;;;4885107;29;20048;-52
2023/06/30 06:47:57;;;;;;;2.47;0.68;;;21.90;1.00;;;;;;4886477;29;20100;-52
2023/06/30 06:50:24;;;;;;;5.82;0.90;;;21.90;1.00;;;;;;4886051;29;20041;-54
2023/06/30 06:52:51;;;;;;;4.30;0.65;;;21.90;1.00;;;;;;4897143;29;20127;-55
2023/06/30 06:55:17;;;;;;;6.30;0.90;;;21.90;1.00;;;;;;4896977;29;20051;-54
2023/06/30 06:57:48;;;;;;;2.78;0.98;;;21.90;1.00;;;;;;4897133;29;20052;-51
2023/06/30 07:00:16;;;;;;;10.40;1.17;;;21.90;1.00;;;;;;4897028;29;20453;-54
2023/06/30 07:02:43;;;;;;;2.60;1.00;;;21.90;1.00;;;;;;4897042;29;20053;-52
2023/06/30 07:05:11;;;;;;;4.07;0.98;;;21.90;1.00;;;;;;4888585;29;20041;-53
2023/06/30 07:07:38;;;;;;;1.20;0.52;;;21.90;1.00;;;;;;4897016;29;20047;-51
2023/06/30 07:10:06;;;;;;;2.30;1.00;;;21.90;1.00;;;;;;4896744;29;20401;-51
2023/06/30 07:12:32;;;;;;;3.53;0.80;;;21.90;1.00;;;;;;4896841;29;20492;-52
2023/06/30 07:14:59;;;;;;;2.35;0.93;;;21.90;1.00;;;;;;4896678;29;20139;-53
2023/06/30 07:17:26;;;;;;;4.13;0.65;;;22.00;1.00;;;;;;4896820;29;20485;-50
2023/06/30 07:19:53;;;;;;;2.45;0.70;;;22.00;1.00;;;;;;4896736;29;20048;-52
2023/06/30 07:22:21;;;;;;;2.08;0.70;;;21.90;1.00;;;;;;4896712;29;20044;-51
2023/06/30 07:24:48;;;;;;;2.50;0.70;;;22.00;1.00;;;;;;4896464;29;20041;-52
2023/06/30 07:27:15;;;;;;;1.48;0.65;;;22.00;1.00;;;;;;4896815;29;20037;-51
2023/06/30 07:29:41;;;;;;;2.88;0.65;;;22.00;1.00;;;;;;4896299;29;20123;-50
2023/06/30 07:32:08;;;;;;;3.15;0.88;;;22.00;1.00;;;;;;4896607;29;20520;-52
2023/06/30 07:34:35;;;;;;;2.42;0.80;;;22.00;1.00;;;;;;4914930;23;20103;-50
2023/06/30 07:37:04;;;;;;;2.00;0.60;;;22.00;1.00;;;;;;4896381;29;20055;-51
2023/06/30 07:39:34;;;;;;;5.53;0.82;;;22.00;1.00;;;;;;4896505;29;20413;-50
2023/06/30 07:42:02;;;;;;;2.78;0.50;;;22.00;1.00;;;;;;4896261;29;20048;-51
2023/06/30 07:44:29;;;;;;;2.97;0.70;;;22.00;1.00;;;;;;4879695;29;20056;-49
2023/06/30 07:46:55;;;;;;;2.90;0.55;;;22.00;1.00;;;;;;4896392;29;20050;-50
2023/06/30 07:49:23;;;;;;;3.85;0.90;;;22.00;1.00;;;;;;4896536;29;20124;-50
2023/06/30 07:51:50;;;;;;;1.33;0.50;;;22.00;1.00;;;;;;4896243;29;20048;-50
2023/06/30 07:54:17;;;;;;;2.92;0.60;;;22.00;1.00;;;;;;4896331;29;20048;-49
2023/06/30 07:56:46;;;;;;;2.22;0.65;;;22.00;1.00;;;;;;4896414;29;20127;-52
2023/06/30 07:59:13;;;;;;;2.40;0.40;;;22.00;1.00;;;;;;4896301;29;20048;-52
2023/06/30 08:01:40;;;;;;;2.75;0.47;;;22.00;1.00;;;;;;4896335;29;20087;-49
2023/06/30 08:04:07;;;;;;;1.17;0.45;;;22.00;1.00;;;;;;4896192;29;20378;-51
2023/06/30 08:06:34;;;;;;;1.63;0.63;;;22.00;1.00;;;;;;4896921;29;20045;-52
2023/06/30 08:09:01;;;;;;;1.27;0.57;;;22.10;1.00;;;;;;4896221;29;20048;-50
2023/06/30 08:11:29;;;;;;;1.73;0.68;;;22.00;1.00;;;;;;4896350;29;20045;-50
2023/06/30 08:13:56;;;;;;;1.33;0.80;;;22.10;1.00;;;;;;4896270;29;20072;-50
2023/06/30 08:16:23;;;;;;;1.70;0.70;;;22.10;1.00;;;;;;4896462;29;20451;-51
2023/06/30 08:18:50;;;;;;;1.25;0.82;;;22.10;1.00;;;;;;4896280;29;20103;-51
2023/06/30 08:21:18;;;;;;;2.42;0.65;;;22.10;1.00;;;;;;4879516;29;20048;-51
2023/06/30 08:23:45;;;;;;;2.38;0.63;;;22.10;1.00;;;;;;4896163;29;20095;-51
2023/06/30 08:26:12;;;;;;;5.60;0.80;;;22.10;1.00;;;;;;4896469;29;20037;-51
2023/06/30 08:28:39;;;;;;;1.83;0.50;;;22.10;1.00;;;;;;4896126;29;20044;-51
2023/06/30 08:31:05;;;;;;;1.73;0.60;;;22.10;1.00;;;;;;4896180;29;20044;-53
2023/06/30 08:33:32;;;;;;;4.38;0.68;;;22.10;1.00;;;;;;4881425;29;20810;-51
2023/06/30 08:36:07;;;;;;;2.30;0.70;;;22.10;1.00;;;;;;5249273;23;20018;-54
2023/06/30 08:38:33;;;;;;;2.65;0.80;;;22.10;1.00;;;;;;4909434;29;20084;-51
2023/06/30 08:41:02;;;;;;;2.42;1.02;;;22.10;1.00;;;;;;4919675;29;20123;-50
2023/06/30 08:43:31;;;;;;;1.90;0.93;;;22.10;1.00;;;;;;4922510;29;20048;-52
2023/06/30 08:46:01;;;;;;;1.83;0.45;;;22.10;1.00;;;;;;4922218;29;20052;-52
2023/06/30 08:48:31;;;;;;;2.75;0.52;;;22.10;1.00;;;;;;4921775;29;20044;-54
2023/06/30 08:50:59;;;;;;;1.55;0.80;;;22.10;1.00;;;;;;4923371;29;20059;-50
2023/06/30 08:53:28;;;;;;;0.93;0.60;;;22.10;1.00;;;;;;4922525;29;20048;-50
2023/06/30 08:55:58;;;;;;;2.60;0.80;;;22.10;1.00;;;;;;4922701;29;20052;-51
2023/06/30 08:58:28;;;;;;;2.47;0.73;;;22.20;1.00;;;;;;4923157;29;20062;-53
2023/06/30 09:00:55;;;;;;;1.13;0.50;;;22.10;1.00;;;;;;4922794;29;20048;-52
2023/06/30 09:03:23;;;;;;;2.90;0.50;;;22.20;1.00;;;;;;4922728;29;20116;-51
2023/06/30 09:05:54;;;;;;;1.67;0.65;;;22.20;1.00;;;;;;4922569;29;20077;-53
2023/06/30 09:08:24;;;;;;;2.25;0.73;;;22.20;1.00;;;;;;5041692;23;20028;31
2023/06/30 09:10:53;;;;;;;1.98;0.63;;;22.20;1.00;;;;;;4918064;29;20055;-54
2023/06/30 09:13:23;;;;;;;2.85;0.73;;;22.20;1.00;;;;;;4922569;29;20122;-52
2023/06/30 09:15:51;;;;;;;5.15;0.70;;;22.20;1.00;;;;;;4922280;29;20051;-52
2023/06/30 09:18:18;;;;;;;1.58;0.75;;;22.20;1.00;;;;;;4910330;29;20068;-52
2023/06/30 09:20:45;;;;;;;1.90;0.98;;;22.20;1.00;;;;;;4919130;29;20062;-50
2023/06/30 09:23:13;;;;;;;2.45;0.82;;;22.20;1.00;;;;;;4921705;29;20567;-55
2023/06/30 09:25:40;;;;;;;1.60;0.60;;;22.20;1.00;;;;;;4918231;29;20094;-54
2023/06/30 09:28:14;;;;;;;3.05;1.00;;;22.20;1.00;;;;;;4917885;29;20040;-55
2023/06/30 09:30:46;;;;;;;1.83;0.60;;;22.20;1.00;;;;;;4917730;29;20044;-56
2023/06/30 09:33:15;;;;;;;1.93;0.70;;;22.20;1.00;;;;;;4917356;29;20040;-53
2023/06/30 09:35:44;;;;;;;2.13;0.75;;;22.20;1.00;;;;;;4917310;29;20493;-58
2023/06/30 09:38:15;;;;;;;1.60;0.73;;;22.20;1.00;;;;;;4917372;29;20044;-56
2023/06/30 09:40:50;;;;;;;1.45;0.68;;;22.20;1.00;;;;;;4917976;29;20044;-53
2023/06/30 09:43:19;;;;;;;1.90;0.65;;;22.20;1.00;;;;;;4917246;29;20048;-54
2023/06/30 09:45:59;;;;;;;2.28;0.70;;;22.20;1.00;;;;;;4917203;29;20067;-54
2023/06/30 09:48:32;;;;;;;1.70;0.63;;;22.20;1.00;;;;;;4917264;29;20067;-56
2023/06/30 09:50:59;;;;;;;1.10;0.53;;;22.20;1.00;;;;;;4900332;29;20048;-55
2023/06/30 09:53:35;;;;;;;2.47;0.55;;;22.20;1.00;;;;;;4916594;29;20093;-54
2023/06/30 09:56:02;;;;;;;3.08;0.68;;;22.20;1.00;;;;;;4917156;29;20407;-53
2023/06/30 09:58:30;;;;;;;1.20;0.52;;;22.20;1.00;;;;;;4917069;29;20118;-53
2023/06/30 10:00:57;;;;;;;1.42;0.50;;;22.20;1.00;;;;;;4916901;29;20075;-52
2023/06/30 10:03:24;;;;;;;2.10;0.70;;;22.20;1.00;;;;;;4916696;29;20056;-56
2023/06/30 10:05:51;;;;;;;1.70;0.70;;;22.20;1.00;;;;;;4916748;29;20082;-56
2023/06/30 10:08:21;;;;;;;0.85;0.50;;;22.20;1.00;;;;;;4917010;29;20040;-57
2023/06/30 10:10:52;;;;;;;2.03;0.70;;;22.30;1.00;;;;;;4912420;23;20087;-52
2023/06/30 10:13:19;;;;;;;2.47;0.65;;;22.20;1.00;;;;;;4897848;29;20052;-53
2023/06/30 10:15:46;;;;;;;3.13;0.60;;;22.20;1.00;;;;;;4897949;29;20124;-56
2023/06/30 10:18:17;;;;;;;2.17;0.88;;;22.20;1.00;;;;;;4897847;29;20041;-55
2023/06/30 10:20:44;;;;;;;1.20;0.70;;;22.30;1.00;;;;;;4897675;29;20047;-50
2023/06/30 10:23:20;;;;;;;1.95;0.93;;;22.30;1.00;;;;;;4897663;29;20097;-53
2023/06/30 10:25:49;;;;;;;1.60;0.73;;;22.30;1.00;;;;;;4897621;29;20048;-51
2023/06/30 10:28:18;;;;;;;3.97;1.15;;;22.30;1.00;;;;;;4897664;29;20476;-52
2023/06/30 10:30:49;;;;;;;4.13;0.60;;;22.30;1.00;;;;;;4897791;29;20123;-55
2023/06/30 10:33:15;;;;;;;1.90;0.43;;;22.30;1.00;;;;;;4897426;29;20047;-54
2023/06/30 10:35:43;;;;;;;2.38;0.50;;;22.20;1.00;;;;;;4897490;29;20041;-50
2023/06/30 10:38:12;;;;;;;1.60;0.75;;;22.30;1.00;;;;;;4897348;29;20056;-54
2023/06/30 10:44:08;;;;;;;2.08;0.80;;;22.20;1.00;;;;;;4876086;29;20064;-56
2023/06/30 10:46:56;;;;;;;1.58;0.60;;;22.20;1.00;;;;;;4878624;29;20105;-52
2023/06/30 10:49:31;;;;;;;1.42;0.77;;;22.30;1.00;;;;;;4878717;29;20097;-54
2023/06/30 10:52:01;;;;;;;2.17;0.77;;;22.30;1.00;;;;;;4878270;29;20075;-54
2023/06/30 10:54:52;;;;;;;1.60;1.02;;;22.30;1.00;;;;;;4878389;29;20053;-56
2023/06/30 10:57:28;;;;;;;2.78;0.75;;;22.30;1.00;;;;;;4878628;29;20176;-57
2023/06/30 11:00:10;;;;;;;0.85;0.57;;;22.30;1.00;;;;;;4878541;29;20049;-57
2023/06/30 11:02:37;;;;;;;1.05;0.52;;;22.30;1.00;;;;;;4878459;29;20052;-56
2023/06/30 11:05:35;;;;;;;1.65;0.75;;;22.30;1.00;;;;;;4878056;29;20048;-57
2023/06/30 11:08:03;;;;;;;2.28;0.70;;;22.30;1.00;;;;;;4878348;29;20033;-57
2023/06/30 11:10:35;;;;;;;2.03;0.65;;;22.30;1.00;;;;;;4878172;29;20149;-57
2023/06/30 11:15:55;;;;;;;1.08;0.70;;;22.30;1.00;;;;;;4871815;27;20049;-56
2023/06/30 11:18:23;;;;;;;1.73;0.60;;;22.30;1.00;;;;;;4871170;29;20041;-55
2023/06/30 11:21:04;;;;;;;1.63;1.05;;;22.30;1.00;;;;;;4878074;29;20097;-55
2023/06/30 11:23:42;;;;;;;2.17;0.63;;;22.30;1.00;;;;;;4877974;29;20589;-57
2023/06/30 11:26:17;;;;;;;0.95;0.45;;;22.30;1.00;;;;;;4878051;29;20045;-57
2023/06/30 11:28:48;;;;;;;1.63;0.90;;;22.30;1.00;;;;;;4878149;29;20056;-58
2023/06/30 11:31:16;;;;;;;1.50;0.65;;;22.30;1.00;;;;;;4861149;29;20045;-56
2023/06/30 11:33:43;;;;;;;1.85;0.82;;;22.30;1.00;;;;;;4877683;29;20041;-57
2023/06/30 11:36:15;;;;;;;4.88;0.77;;;22.30;1.00;;;;;;4878060;29;20473;-56
2023/06/30 11:38:49;;;;;;;1.13;0.63;;;22.30;1.00;;;;;;4878071;29;20104;-56
2023/06/30 11:41:22;;;;;;;1.20;0.70;;;22.30;1.00;;;;;;4877875;29;20117;-57
2023/06/30 11:43:55;;;;;;;;;;;22.30;1.00;;;;;;4878169;29;20052;-55
2023/06/30 11:46:23;;;;;;;1.48;0.38;;;22.30;1.00;;;;;;5182797;23;20666;-55
2023/06/30 11:48:50;;;;;;;1.67;0.57;;;22.30;1.00;;;;;;4874204;29;20072;-56
2023/06/30 11:51:17;;;;;;;3.05;0.82;;;22.30;1.00;;;;;;4877556;29;20116;-54
2023/06/30 11:53:47;;;;;;;2.60;0.68;;;22.30;1.00;;;;;;4877528;29;20052;-55
2023/06/30 11:56:17;;;;;;;2.40;1.15;;;22.30;1.00;;;;;;4877747;29;20409;-56
2023/06/30 11:58:51;;;;;;;1.63;0.77;;;22.30;1.00;;;;;;4877864;29;20045;-57
2023/06/30 12:01:21;;;;;;;2.17;0.60;;;22.30;1.00;;;;;;4877626;29;20033;-57
2023/06/30 12:04:13;;;;;;;2.08;0.80;;;22.30;1.00;;;;;;4877539;29;20127;-57
2023/06/30 12:06:45;;;;;;;2.38;0.65;;;22.30;1.00;;;;;;4856496;29;20151;-54
2023/06/30 12:09:11;;;;;;;1.58;0.70;;;22.30;1.00;;;;;;4877797;29;20049;-54
2023/06/30 12:11:42;;;;;;;2.13;0.77;;;22.30;1.00;;;;;;4877655;29;20052;-55
2023/06/30 12:14:11;;;;;;;2.17;0.80;;;22.30;1.00;;;;;;4877429;29;20056;-56
2023/06/30 12:16:41;;;;;;;2.83;0.70;;;22.30;1.00;;;;;;4880272;29;20041;-56
2023/06/30 12:19:10;;;;;;;1.30;0.60;;;22.30;1.00;;;;;;4970861;23;20135;-52
2023/06/30 12:21:50;;;;;;;4.50;1.13;;;22.30;1.00;;;;;;4918414;29;20044;-56
2023/06/30 12:24:21;;;;;;;1.65;0.60;;;22.30;1.00;;;;;;4893866;29;20072;-54
2023/06/30 12:26:49;;;;;;;1.50;0.85;;;22.30;1.00;;;;;;4918677;29;20040;-56
2023/06/30 12:29:17;;;;;;;2.22;0.57;;;22.30;1.00;;;;;;4918715;29;20123;-55
2023/06/30 12:31:47;;;;;;;1.25;0.63;;;22.30;1.00;;;;;;4918498;29;20096;-56
2023/06/30 12:34:34;;;;;;;3.90;0.70;;;22.30;1.00;;;;;;4918438;29;20044;-54
2023/06/30 12:37:02;;;;;;;1.40;0.60;;;22.30;1.00;;;;;;4918281;29;20511;-55
2023/06/30 12:39:29;;;;;;;1.02;0.45;;;22.30;1.00;;;;;;4918544;29;20080;-56
2023/06/30 12:41:56;;;;;;;1.33;0.68;;;22.30;1.00;;;;;;4918480;29;20493;-55
2023/06/30 12:44:23;;;;;;;1.25;0.82;;;22.40;1.00;;;;;;4918355;29;20407;-55
2023/06/30 12:47:03;;;;;;;1.77;0.88;;;22.40;1.00;;;;;;4918415;29;20103;-51
2023/06/30 12:49:30;;;;;;;1.80;0.73;;;22.40;1.00;;;;;;4960995;23;20053;-54
2023/06/30 12:51:58;;;;;;;2.72;0.70;;;22.30;1.00;;;;;;4896302;29;20570;-54
2023/06/30 12:54:29;;;;;;;1.52;0.70;;;22.30;1.00;;;;;;4899378;29;20505;-54
2023/06/30 12:56:56;;;;;;;3.38;0.77;;;22.30;1.00;;;;;;4899521;29;20045;-55
2023/06/30 12:59:23;;;;;;;1.02;0.63;;;22.40;1.00;;;;;;4899348;29;20051;-55
2023/06/30 13:01:50;;;;;;;2.10;0.80;;;22.40;1.00;;;;;;4899297;29;20501;-56
2023/06/30 13:04:17;;;;;;;3.83;0.73;;;22.40;1.00;;;;;;4899090;29;20033;-56
2023/06/30 13:06:44;;;;;;;2.72;0.90;;;22.40;1.00;;;;;;4882740;29;20044;-55
2023/06/30 13:09:10;;;;;;;2.90;0.80;;;22.40;1.00;;;;;;4897675;29;20246;-55
2023/06/30 13:11:37;;;;;;;2.00;0.95;;;22.40;1.00;;;;;;4893201;29;20064;-57
2023/06/30 13:14:04;;;;;;;6.43;0.77;;;22.40;1.00;;;;;;4898957;29;20040;-55
2023/06/30 13:16:31;;;;;;;3.08;0.93;;;22.40;1.00;;;;;;4899157;29;20390;-55
2023/06/30 13:18:58;;;;;;;2.78;0.98;;;22.40;1.00;;;;;;4899278;29;20040;-56
2023/06/30 13:21:26;;;;;;;1.40;0.65;;;22.40;1.00;;;;;;5054006;23;20104;-56
2023/06/30 13:23:52;;;;;;;2.08;1.25;;;22.40;1.00;;;;;;4898831;29;20048;-57